sensor_id;sensor_type;location;lat;lon;timestamp;temperature;humidity
8422;DHT22;4248;48.196;10.924;2023-04-24T00:01:25;11.10;61.70
8422;DHT22;4248;48.196;10.924;2023-04-24T00:03:50;11.10;61.70
8422;DHT22;4248;48.196;10.924;2023-04-24T00:06:16;11.10;61.60
8422;DHT22;4248;48.196;10.924;2023-04-24T00:08:42;11.10;61.70
8422;DHT22;4248;48.196;10.924;2023-04-24T00:11:08;11.00;61.70
8422;DHT22;4248;48.196;10.924;2023-04-24T00:13:34;11.00;62.10
8422;DHT22;4248;48.196;10.924;2023-04-24T00:16:00;11.00;62.20
8422;DHT22;4248;48.196;10.924;2023-04-24T00:18:26;11.00;62.20
8422;DHT22;4248;48.196;10.924;2023-04-24T00:20:52;10.90;62.50
8422;DHT22;4248;48.196;10.924;2023-04-24T00:23:18;10.90;62.60
8422;DHT22;4248;48.196;10.924;2023-04-24T00:25:43;10.90;62.70
8422;DHT22;4248;48.196;10.924;2023-04-24T00:28:09;10.80;62.70
8422;DHT22;4248;48.196;10.924;2023-04-24T00:30:34;10.80;62.90
8422;DHT22;4248;48.196;10.924;2023-04-24T00:33:01;10.80;63.00
8422;DHT22;4248;48.196;10.924;2023-04-24T00:35:27;10.70;63.30
8422;DHT22;4248;48.196;10.924;2023-04-24T00:37:52;10.70;63.50
8422;DHT22;4248;48.196;10.924;2023-04-24T00:40:18;10.70;63.60
8422;DHT22;4248;48.196;10.924;2023-04-24T00:42:43;10.60;63.60
8422;DHT22;4248;48.196;10.924;2023-04-24T00:45:10;10.60;63.70
8422;DHT22;4248;48.196;10.924;2023-04-24T00:47:36;10.60;63.60
8422;DHT22;4248;48.196;10.924;2023-04-24T00:50:04;10.60;63.60
8422;DHT22;4248;48.196;10.924;2023-04-24T00:52:30;10.60;63.70
8422;DHT22;4248;48.196;10.924;2023-04-24T00:54:58;10.60;63.70
8422;DHT22;4248;48.196;10.924;2023-04-24T00:57:23;10.50;63.70
8422;DHT22;4248;48.196;10.924;2023-04-24T00:59:51;10.50;63.70
8422;DHT22;4248;48.196;10.924;2023-04-24T01:02:17;10.50;63.90
8422;DHT22;4248;48.196;10.924;2023-04-24T01:04:43;10.50;63.90
8422;DHT22;4248;48.196;10.924;2023-04-24T01:07:09;10.40;64.00
8422;DHT22;4248;48.196;10.924;2023-04-24T01:09:40;10.40;64.10
8422;DHT22;4248;48.196;10.924;2023-04-24T01:12:09;10.40;64.10
8422;DHT22;4248;48.196;10.924;2023-04-24T01:14:35;10.40;64.20
8422;DHT22;4248;48.196;10.924;2023-04-24T01:17:00;10.40;64.10
8422;DHT22;4248;48.196;10.924;2023-04-24T01:19:27;10.40;64.10
8422;DHT22;4248;48.196;10.924;2023-04-24T01:21:54;10.40;64.00
8422;DHT22;4248;48.196;10.924;2023-04-24T01:24:22;10.50;63.90
8422;DHT22;4248;48.196;10.924;2023-04-24T01:26:47;10.50;63.70
8422;DHT22;4248;48.196;10.924;2023-04-24T01:29:13;10.50;63.50
8422;DHT22;4248;48.196;10.924;2023-04-24T01:31:39;10.50;63.50
8422;DHT22;4248;48.196;10.924;2023-04-24T01:34:06;10.50;63.30
8422;DHT22;4248;48.196;10.924;2023-04-24T01:36:32;10.50;63.30
8422;DHT22;4248;48.196;10.924;2023-04-24T01:38:58;10.50;63.40
8422;DHT22;4248;48.196;10.924;2023-04-24T01:41:24;10.50;63.50
8422;DHT22;4248;48.196;10.924;2023-04-24T01:43:50;10.50;63.50
8422;DHT22;4248;48.196;10.924;2023-04-24T01:46:16;10.50;63.50
8422;DHT22;4248;48.196;10.924;2023-04-24T01:48:42;10.50;63.40
8422;DHT22;4248;48.196;10.924;2023-04-24T01:51:08;10.50;63.30
8422;DHT22;4248;48.196;10.924;2023-04-24T01:53:33;10.50;63.40
8422;DHT22;4248;48.196;10.924;2023-04-24T01:55:59;10.50;63.20
8422;DHT22;4248;48.196;10.924;2023-04-24T01:58:26;10.60;63.40
8422;DHT22;4248;48.196;10.924;2023-04-24T02:00:59;10.50;63.40
8422;DHT22;4248;48.196;10.924;2023-04-24T02:03:26;10.50;63.50
8422;DHT22;4248;48.196;10.924;2023-04-24T02:05:51;10.60;63.50
8422;DHT22;4248;48.196;10.924;2023-04-24T02:08:17;10.60;63.50
8422;DHT22;4248;48.196;10.924;2023-04-24T02:10:43;10.60;63.40
8422;DHT22;4248;48.196;10.924;2023-04-24T02:13:08;10.60;63.50
8422;DHT22;4248;48.196;10.924;2023-04-24T02:15:34;10.60;63.60
8422;DHT22;4248;48.196;10.924;2023-04-24T02:18:01;10.60;63.70
8422;DHT22;4248;48.196;10.924;2023-04-24T02:20:26;10.60;63.70
8422;DHT22;4248;48.196;10.924;2023-04-24T02:22:52;10.60;63.70
8422;DHT22;4248;48.196;10.924;2023-04-24T02:25:18;10.60;63.70
8422;DHT22;4248;48.196;10.924;2023-04-24T02:27:43;10.70;63.60
8422;DHT22;4248;48.196;10.924;2023-04-24T02:30:09;10.70;63.70
8422;DHT22;4248;48.196;10.924;2023-04-24T02:32:35;10.60;63.70
8422;DHT22;4248;48.196;10.924;2023-04-24T02:35:01;10.70;63.70
8422;DHT22;4248;48.196;10.924;2023-04-24T02:37:27;10.70;63.60
8422;DHT22;4248;48.196;10.924;2023-04-24T02:39:53;10.70;63.60
8422;DHT22;4248;48.196;10.924;2023-04-24T02:42:18;10.70;63.70
8422;DHT22;4248;48.196;10.924;2023-04-24T02:44:44;10.70;63.70
8422;DHT22;4248;48.196;10.924;2023-04-24T02:47:09;10.70;63.60
8422;DHT22;4248;48.196;10.924;2023-04-24T02:49:35;10.70;63.50
8422;DHT22;4248;48.196;10.924;2023-04-24T02:52:00;10.70;63.40
8422;DHT22;4248;48.196;10.924;2023-04-24T02:54:26;10.70;63.60
8422;DHT22;4248;48.196;10.924;2023-04-24T02:56:52;10.70;63.80
8422;DHT22;4248;48.196;10.924;2023-04-24T02:59:17;10.60;63.80
8422;DHT22;4248;48.196;10.924;2023-04-24T03:01:43;10.60;64.10
8422;DHT22;4248;48.196;10.924;2023-04-24T03:04:08;10.70;64.00
8422;DHT22;4248;48.196;10.924;2023-04-24T03:06:35;10.60;63.90
8422;DHT22;4248;48.196;10.924;2023-04-24T03:09:01;10.60;63.90
8422;DHT22;4248;48.196;10.924;2023-04-24T03:11:27;10.60;63.90
8422;DHT22;4248;48.196;10.924;2023-04-24T03:13:52;10.60;63.90
8422;DHT22;4248;48.196;10.924;2023-04-24T03:16:18;10.60;64.00
8422;DHT22;4248;48.196;10.924;2023-04-24T03:18:44;10.60;64.10
8422;DHT22;4248;48.196;10.924;2023-04-24T03:21:09;10.50;64.10
8422;DHT22;4248;48.196;10.924;2023-04-24T03:23:35;10.50;64.50
8422;DHT22;4248;48.196;10.924;2023-04-24T03:26:00;10.50;64.50
8422;DHT22;4248;48.196;10.924;2023-04-24T03:28:27;10.50;64.80
8422;DHT22;4248;48.196;10.924;2023-04-24T03:30:53;10.50;64.90
8422;DHT22;4248;48.196;10.924;2023-04-24T03:33:18;10.40;64.80
8422;DHT22;4248;48.196;10.924;2023-04-24T03:35:44;10.40;64.80
8422;DHT22;4248;48.196;10.924;2023-04-24T03:38:10;10.40;64.80
8422;DHT22;4248;48.196;10.924;2023-04-24T03:40:35;10.30;64.70
8422;DHT22;4248;48.196;10.924;2023-04-24T03:43:01;10.30;64.70
8422;DHT22;4248;48.196;10.924;2023-04-24T03:45:27;10.20;64.80
8422;DHT22;4248;48.196;10.924;2023-04-24T03:47:53;10.20;65.00
8422;DHT22;4248;48.196;10.924;2023-04-24T03:50:19;10.20;65.40
8422;DHT22;4248;48.196;10.924;2023-04-24T03:52:44;10.20;65.70
8422;DHT22;4248;48.196;10.924;2023-04-24T03:55:10;10.10;65.80
8422;DHT22;4248;48.196;10.924;2023-04-24T03:57:39;10.10;65.80
8422;DHT22;4248;48.196;10.924;2023-04-24T04:00:05;10.10;65.80
8422;DHT22;4248;48.196;10.924;2023-04-24T04:02:31;10.10;65.80
8422;DHT22;4248;48.196;10.924;2023-04-24T04:04:57;10.00;65.80
8422;DHT22;4248;48.196;10.924;2023-04-24T04:07:22;10.00;65.90
8422;DHT22;4248;48.196;10.924;2023-04-24T04:09:48;10.00;66.10
8422;DHT22;4248;48.196;10.924;2023-04-24T04:12:13;10.00;66.40
8422;DHT22;4248;48.196;10.924;2023-04-24T04:14:39;10.00;66.40
8422;DHT22;4248;48.196;10.924;2023-04-24T04:17:05;9.90;67.60
8422;DHT22;4248;48.196;10.924;2023-04-24T04:19:30;9.90;67.60
8422;DHT22;4248;48.196;10.924;2023-04-24T04:21:56;9.90;67.40
8422;DHT22;4248;48.196;10.924;2023-04-24T04:24:21;9.90;67.50
8422;DHT22;4248;48.196;10.924;2023-04-24T04:26:48;9.90;67.20
8422;DHT22;4248;48.196;10.924;2023-04-24T04:29:16;9.90;67.20
8422;DHT22;4248;48.196;10.924;2023-04-24T04:31:43;9.90;67.30
8422;DHT22;4248;48.196;10.924;2023-04-24T04:34:08;9.90;67.40
8422;DHT22;4248;48.196;10.924;2023-04-24T04:36:34;9.90;67.40
8422;DHT22;4248;48.196;10.924;2023-04-24T04:39:02;9.90;67.40
8422;DHT22;4248;48.196;10.924;2023-04-24T04:41:28;10.00;66.40
8422;DHT22;4248;48.196;10.924;2023-04-24T04:43:54;10.00;66.40
8422;DHT22;4248;48.196;10.924;2023-04-24T04:46:20;10.00;66.30
8422;DHT22;4248;48.196;10.924;2023-04-24T04:48:45;10.10;66.10
8422;DHT22;4248;48.196;10.924;2023-04-24T04:51:11;10.10;66.00
8422;DHT22;4248;48.196;10.924;2023-04-24T04:53:37;10.20;65.70
8422;DHT22;4248;48.196;10.924;2023-04-24T04:56:02;10.30;65.60
8422;DHT22;4248;48.196;10.924;2023-04-24T04:58:28;10.30;65.30
8422;DHT22;4248;48.196;10.924;2023-04-24T05:00:54;10.40;65.10
8422;DHT22;4248;48.196;10.924;2023-04-24T05:03:19;10.40;65.20
8422;DHT22;4248;48.196;10.924;2023-04-24T05:05:45;10.50;65.00
8422;DHT22;4248;48.196;10.924;2023-04-24T05:08:11;10.50;64.90
8422;DHT22;4248;48.196;10.924;2023-04-24T05:10:36;10.50;64.90
8422;DHT22;4248;48.196;10.924;2023-04-24T05:13:03;10.60;65.00
8422;DHT22;4248;48.196;10.924;2023-04-24T05:15:29;10.60;65.00
8422;DHT22;4248;48.196;10.924;2023-04-24T05:17:55;10.60;65.00
8422;DHT22;4248;48.196;10.924;2023-04-24T05:20:21;10.60;65.00
8422;DHT22;4248;48.196;10.924;2023-04-24T05:22:46;10.60;65.00
8422;DHT22;4248;48.196;10.924;2023-04-24T05:25:12;10.70;65.20
8422;DHT22;4248;48.196;10.924;2023-04-24T05:27:38;10.70;65.10
8422;DHT22;4248;48.196;10.924;2023-04-24T05:30:04;10.80;65.00
8422;DHT22;4248;48.196;10.924;2023-04-24T05:32:30;10.80;64.70
8422;DHT22;4248;48.196;10.924;2023-04-24T05:34:56;10.80;64.40
8422;DHT22;4248;48.196;10.924;2023-04-24T05:37:21;10.90;64.30
8422;DHT22;4248;48.196;10.924;2023-04-24T05:39:47;10.90;64.20
8422;DHT22;4248;48.196;10.924;2023-04-24T05:42:13;10.80;64.30
8422;DHT22;4248;48.196;10.924;2023-04-24T05:44:38;10.90;64.20
8422;DHT22;4248;48.196;10.924;2023-04-24T05:47:04;10.90;64.10
8422;DHT22;4248;48.196;10.924;2023-04-24T05:49:30;11.00;64.00
8422;DHT22;4248;48.196;10.924;2023-04-24T05:51:55;11.00;63.90
8422;DHT22;4248;48.196;10.924;2023-04-24T05:54:21;11.10;63.50
8422;DHT22;4248;48.196;10.924;2023-04-24T05:56:46;11.10;63.30
8422;DHT22;4248;48.196;10.924;2023-04-24T05:59:12;11.10;63.00
8422;DHT22;4248;48.196;10.924;2023-04-24T06:01:38;11.20;63.10
8422;DHT22;4248;48.196;10.924;2023-04-24T06:04:04;11.20;62.90
8422;DHT22;4248;48.196;10.924;2023-04-24T06:06:29;11.20;62.60
8422;DHT22;4248;48.196;10.924;2023-04-24T06:08:55;11.20;62.60
8422;DHT22;4248;48.196;10.924;2023-04-24T06:11:22;11.30;62.30
8422;DHT22;4248;48.196;10.924;2023-04-24T06:13:48;11.30;62.10
8422;DHT22;4248;48.196;10.924;2023-04-24T06:16:13;11.40;61.90
8422;DHT22;4248;48.196;10.924;2023-04-24T06:18:39;11.50;61.60
8422;DHT22;4248;48.196;10.924;2023-04-24T06:21:05;11.50;61.30
8422;DHT22;4248;48.196;10.924;2023-04-24T06:23:30;11.60;61.00
8422;DHT22;4248;48.196;10.924;2023-04-24T06:25:58;11.60;60.90
8422;DHT22;4248;48.196;10.924;2023-04-24T06:28:24;11.70;60.60
8422;DHT22;4248;48.196;10.924;2023-04-24T06:30:49;11.70;60.50
8422;DHT22;4248;48.196;10.924;2023-04-24T06:33:16;11.70;60.00
8422;DHT22;4248;48.196;10.924;2023-04-24T06:35:41;11.80;59.90
8422;DHT22;4248;48.196;10.924;2023-04-24T06:38:07;11.90;59.70
8422;DHT22;4248;48.196;10.924;2023-04-24T06:40:33;12.00;59.50
8422;DHT22;4248;48.196;10.924;2023-04-24T06:42:58;12.00;59.10
8422;DHT22;4248;48.196;10.924;2023-04-24T06:45:25;12.10;58.80
8422;DHT22;4248;48.196;10.924;2023-04-24T06:47:51;12.20;58.60
8422;DHT22;4248;48.196;10.924;2023-04-24T06:50:17;12.20;58.20
8422;DHT22;4248;48.196;10.924;2023-04-24T06:52:42;12.30;57.90
8422;DHT22;4248;48.196;10.924;2023-04-24T06:55:08;12.40;57.60
8422;DHT22;4248;48.196;10.924;2023-04-24T06:57:34;12.50;57.20
8422;DHT22;4248;48.196;10.924;2023-04-24T06:59:59;12.50;56.80
8422;DHT22;4248;48.196;10.924;2023-04-24T07:02:25;12.60;56.50
8422;DHT22;4248;48.196;10.924;2023-04-24T07:04:51;12.60;56.10
8422;DHT22;4248;48.196;10.924;2023-04-24T07:07:16;12.50;56.20
8422;DHT22;4248;48.196;10.924;2023-04-24T07:09:42;12.50;56.30
8422;DHT22;4248;48.196;10.924;2023-04-24T07:12:08;12.40;56.10
8422;DHT22;4248;48.196;10.924;2023-04-24T07:14:36;12.50;56.20
8422;DHT22;4248;48.196;10.924;2023-04-24T07:17:03;12.40;55.90
8422;DHT22;4248;48.196;10.924;2023-04-24T07:19:28;12.50;55.80
8422;DHT22;4248;48.196;10.924;2023-04-24T07:21:55;12.40;55.30
8422;DHT22;4248;48.196;10.924;2023-04-24T07:24:20;12.50;55.30
8422;DHT22;4248;48.196;10.924;2023-04-24T07:26:46;12.50;55.00
8422;DHT22;4248;48.196;10.924;2023-04-24T07:29:12;12.60;54.60
8422;DHT22;4248;48.196;10.924;2023-04-24T07:31:38;12.60;54.20
8422;DHT22;4248;48.196;10.924;2023-04-24T07:34:06;12.50;54.00
8422;DHT22;4248;48.196;10.924;2023-04-24T07:36:32;12.20;54.40
8422;DHT22;4248;48.196;10.924;2023-04-24T07:38:57;12.00;54.60
8422;DHT22;4248;48.196;10.924;2023-04-24T07:41:23;11.80;55.20
8422;DHT22;4248;48.196;10.924;2023-04-24T07:43:49;11.70;55.20
8422;DHT22;4248;48.196;10.924;2023-04-24T07:46:15;11.60;55.80
8422;DHT22;4248;48.196;10.924;2023-04-24T07:48:41;11.60;55.30
8422;DHT22;4248;48.196;10.924;2023-04-24T07:51:06;11.30;55.60
8422;DHT22;4248;48.196;10.924;2023-04-24T07:53:33;11.20;55.60
8422;DHT22;4248;48.196;10.924;2023-04-24T07:55:59;11.10;53.90
8422;DHT22;4248;48.196;10.924;2023-04-24T07:58:24;11.10;52.70
8422;DHT22;4248;48.196;10.924;2023-04-24T08:00:50;11.10;52.60
8422;DHT22;4248;48.196;10.924;2023-04-24T08:03:16;11.30;52.90
8422;DHT22;4248;48.196;10.924;2023-04-24T08:05:44;11.30;52.80
8422;DHT22;4248;48.196;10.924;2023-04-24T08:08:10;11.40;54.10
8422;DHT22;4248;48.196;10.924;2023-04-24T08:10:35;11.50;53.00
8422;DHT22;4248;48.196;10.924;2023-04-24T08:13:01;11.60;53.10
8422;DHT22;4248;48.196;10.924;2023-04-24T08:15:27;11.60;53.10
8422;DHT22;4248;48.196;10.924;2023-04-24T08:17:53;11.40;52.20
8422;DHT22;4248;48.196;10.924;2023-04-24T08:20:18;11.20;52.70
8422;DHT22;4248;48.196;10.924;2023-04-24T08:22:44;11.30;52.80
8422;DHT22;4248;48.196;10.924;2023-04-24T08:25:12;11.40;51.90
8422;DHT22;4248;48.196;10.924;2023-04-24T08:27:38;11.80;51.10
8422;DHT22;4248;48.196;10.924;2023-04-24T08:30:05;12.20;50.00
8422;DHT22;4248;48.196;10.924;2023-04-24T08:32:31;12.30;49.20
8422;DHT22;4248;48.196;10.924;2023-04-24T08:34:57;12.50;47.90
8422;DHT22;4248;48.196;10.924;2023-04-24T08:37:23;13.00;47.60
8422;DHT22;4248;48.196;10.924;2023-04-24T08:39:49;13.50;46.30
8422;DHT22;4248;48.196;10.924;2023-04-24T08:42:17;13.70;45.60
8422;DHT22;4248;48.196;10.924;2023-04-24T08:44:43;13.80;45.00
8422;DHT22;4248;48.196;10.924;2023-04-24T08:47:10;13.90;44.90
8422;DHT22;4248;48.196;10.924;2023-04-24T08:49:37;14.00;44.40
8422;DHT22;4248;48.196;10.924;2023-04-24T08:52:03;13.90;43.30
8422;DHT22;4248;48.196;10.924;2023-04-24T08:54:30;14.00;42.20
8422;DHT22;4248;48.196;10.924;2023-04-24T08:56:59;14.00;42.20
8422;DHT22;4248;48.196;10.924;2023-04-24T08:59:27;14.30;42.40
8422;DHT22;4248;48.196;10.924;2023-04-24T09:01:55;14.50;40.90
8422;DHT22;4248;48.196;10.924;2023-04-24T09:04:22;14.80;41.60
8422;DHT22;4248;48.196;10.924;2023-04-24T09:06:59;15.00;41.10
8422;DHT22;4248;48.196;10.924;2023-04-24T09:09:25;15.10;39.50
8422;DHT22;4248;48.196;10.924;2023-04-24T09:11:52;14.30;37.40
8422;DHT22;4248;48.196;10.924;2023-04-24T09:14:20;14.00;39.20
8422;DHT22;4248;48.196;10.924;2023-04-24T09:16:46;14.40;39.40
8422;DHT22;4248;48.196;10.924;2023-04-24T09:19:12;14.70;38.90
8422;DHT22;4248;48.196;10.924;2023-04-24T09:21:38;14.50;37.30
8422;DHT22;4248;48.196;10.924;2023-04-24T09:24:09;14.60;37.90
8422;DHT22;4248;48.196;10.924;2023-04-24T09:26:39;14.60;38.50
8422;DHT22;4248;48.196;10.924;2023-04-24T09:29:05;14.80;37.90
8422;DHT22;4248;48.196;10.924;2023-04-24T09:31:31;14.70;37.90
8422;DHT22;4248;48.196;10.924;2023-04-24T09:33:59;14.70;38.80
8422;DHT22;4248;48.196;10.924;2023-04-24T09:36:28;14.60;39.90
8422;DHT22;4248;48.196;10.924;2023-04-24T09:39:03;14.90;39.70
8422;DHT22;4248;48.196;10.924;2023-04-24T09:41:30;14.80;39.00
8422;DHT22;4248;48.196;10.924;2023-04-24T09:44:15;14.70;39.30
8422;DHT22;4248;48.196;10.924;2023-04-24T09:46:42;14.90;39.00
8422;DHT22;4248;48.196;10.924;2023-04-24T09:49:10;15.10;38.50
8422;DHT22;4248;48.196;10.924;2023-04-24T09:51:37;15.40;37.90
8422;DHT22;4248;48.196;10.924;2023-04-24T09:54:04;15.10;37.70
8422;DHT22;4248;48.196;10.924;2023-04-24T09:56:33;14.70;38.10
8422;DHT22;4248;48.196;10.924;2023-04-24T09:59:06;14.50;39.00
8422;DHT22;4248;48.196;10.924;2023-04-24T10:01:33;14.00;40.00
8422;DHT22;4248;48.196;10.924;2023-04-24T10:03:58;12.80;44.30
8422;DHT22;4248;48.196;10.924;2023-04-24T10:06:34;12.30;45.80
8422;DHT22;4248;48.196;10.924;2023-04-24T10:09:00;12.40;45.30
8422;DHT22;4248;48.196;10.924;2023-04-24T10:11:30;12.50;44.60
8422;DHT22;4248;48.196;10.924;2023-04-24T10:13:56;12.70;44.00
8422;DHT22;4248;48.196;10.924;2023-04-24T10:16:23;12.90;43.30
8422;DHT22;4248;48.196;10.924;2023-04-24T10:18:49;13.20;42.60
8422;DHT22;4248;48.196;10.924;2023-04-24T10:21:15;13.40;41.70
8422;DHT22;4248;48.196;10.924;2023-04-24T10:23:42;13.70;41.80
8422;DHT22;4248;48.196;10.924;2023-04-24T10:26:12;14.10;41.60
8422;DHT22;4248;48.196;10.924;2023-04-24T10:28:45;14.50;40.70
8422;DHT22;4248;48.196;10.924;2023-04-24T10:31:12;14.70;40.50
8422;DHT22;4248;48.196;10.924;2023-04-24T10:33:39;14.50;41.10
8422;DHT22;4248;48.196;10.924;2023-04-24T10:36:08;14.10;41.40
8422;DHT22;4248;48.196;10.924;2023-04-24T10:38:35;13.70;42.50
8422;DHT22;4248;48.196;10.924;2023-04-24T10:41:12;13.50;43.30
8422;DHT22;4248;48.196;10.924;2023-04-24T10:44:04;13.10;44.40
8422;DHT22;4248;48.196;10.924;2023-04-24T10:46:30;12.70;45.70
8422;DHT22;4248;48.196;10.924;2023-04-24T10:48:56;12.40;46.90
8422;DHT22;4248;48.196;10.924;2023-04-24T10:51:24;12.40;47.70
8422;DHT22;4248;48.196;10.924;2023-04-24T10:53:50;12.60;48.30
8422;DHT22;4248;48.196;10.924;2023-04-24T10:56:17;12.80;47.70
8422;DHT22;4248;48.196;10.924;2023-04-24T10:58:49;13.10;48.30
8422;DHT22;4248;48.196;10.924;2023-04-24T11:01:29;13.30;47.80
8422;DHT22;4248;48.196;10.924;2023-04-24T11:03:57;13.40;47.50
8422;DHT22;4248;48.196;10.924;2023-04-24T11:06:29;13.50;48.30
8422;DHT22;4248;48.196;10.924;2023-04-24T11:09:05;13.50;48.30
8422;DHT22;4248;48.196;10.924;2023-04-24T11:11:32;13.40;47.80
8422;DHT22;4248;48.196;10.924;2023-04-24T11:18:59;13.70;47.70
8422;DHT22;4248;48.196;10.924;2023-04-24T11:21:25;14.20;44.80
8422;DHT22;4248;48.196;10.924;2023-04-24T11:23:51;14.30;44.10
8422;DHT22;4248;48.196;10.924;2023-04-24T11:26:22;14.50;44.30
8422;DHT22;4248;48.196;10.924;2023-04-24T11:29:06;14.50;43.70
8422;DHT22;4248;48.196;10.924;2023-04-24T11:31:39;14.10;43.60
8422;DHT22;4248;48.196;10.924;2023-04-24T11:34:12;13.70;42.70
8422;DHT22;4248;48.196;10.924;2023-04-24T11:36:39;13.80;43.30
8422;DHT22;4248;48.196;10.924;2023-04-24T11:39:05;14.00;42.10
8422;DHT22;4248;48.196;10.924;2023-04-24T11:41:31;14.20;42.30
8422;DHT22;4248;48.196;10.924;2023-04-24T11:43:57;14.30;42.40
8422;DHT22;4248;48.196;10.924;2023-04-24T11:46:23;14.20;43.00
8422;DHT22;4248;48.196;10.924;2023-04-24T11:48:48;14.20;42.30
8422;DHT22;4248;48.196;10.924;2023-04-24T11:51:14;14.30;40.80
8422;DHT22;4248;48.196;10.924;2023-04-24T11:53:40;14.40;39.70
8422;DHT22;4248;48.196;10.924;2023-04-24T11:56:06;14.70;40.60
8422;DHT22;4248;48.196;10.924;2023-04-24T11:58:35;14.90;37.40
8422;DHT22;4248;48.196;10.924;2023-04-24T12:01:01;15.00;37.30
8422;DHT22;4248;48.196;10.924;2023-04-24T12:03:27;15.50;35.50
8422;DHT22;4248;48.196;10.924;2023-04-24T12:05:53;15.70;33.90
8422;DHT22;4248;48.196;10.924;2023-04-24T12:08:29;15.80;30.10
8422;DHT22;4248;48.196;10.924;2023-04-24T12:10:55;15.60;30.40
8422;DHT22;4248;48.196;10.924;2023-04-24T12:13:21;15.30;32.40
8422;DHT22;4248;48.196;10.924;2023-04-24T12:15:47;14.80;30.80
8422;DHT22;4248;48.196;10.924;2023-04-24T12:18:12;14.50;32.20
8422;DHT22;4248;48.196;10.924;2023-04-24T12:20:40;14.20;32.30
8422;DHT22;4248;48.196;10.924;2023-04-24T12:23:06;13.80;32.20
8422;DHT22;4248;48.196;10.924;2023-04-24T12:25:32;13.50;33.30
8422;DHT22;4248;48.196;10.924;2023-04-24T12:30:32;13.40;33.80
8422;DHT22;4248;48.196;10.924;2023-04-24T12:32:58;13.70;34.00
8422;DHT22;4248;48.196;10.924;2023-04-24T12:35:30;13.90;35.20
8422;DHT22;4248;48.196;10.924;2023-04-24T12:38:09;14.00;33.10
8422;DHT22;4248;48.196;10.924;2023-04-24T12:40:34;14.20;35.10
8422;DHT22;4248;48.196;10.924;2023-04-24T12:43:00;14.40;32.60
8422;DHT22;4248;48.196;10.924;2023-04-24T12:45:26;14.60;33.30
8422;DHT22;4248;48.196;10.924;2023-04-24T12:47:53;14.70;29.90
8422;DHT22;4248;48.196;10.924;2023-04-24T12:50:19;14.70;29.60
8422;DHT22;4248;48.196;10.924;2023-04-24T12:52:45;14.70;28.20
8422;DHT22;4248;48.196;10.924;2023-04-24T12:55:10;14.60;25.70
8422;DHT22;4248;48.196;10.924;2023-04-24T12:57:40;14.80;27.00
8422;DHT22;4248;48.196;10.924;2023-04-24T13:00:07;14.90;26.00
8422;DHT22;4248;48.196;10.924;2023-04-24T13:02:33;14.90;25.80
8422;DHT22;4248;48.196;10.924;2023-04-24T13:04:59;14.60;24.60
8422;DHT22;4248;48.196;10.924;2023-04-24T13:07:25;14.70;25.20
8422;DHT22;4248;48.196;10.924;2023-04-24T13:09:52;15.00;25.50
8422;DHT22;4248;48.196;10.924;2023-04-24T13:12:18;15.00;25.50
8422;DHT22;4248;48.196;10.924;2023-04-24T13:14:44;14.70;24.90
8422;DHT22;4248;48.196;10.924;2023-04-24T13:17:11;14.40;26.20
8422;DHT22;4248;48.196;10.924;2023-04-24T13:19:39;14.10;26.30
8422;DHT22;4248;48.196;10.924;2023-04-24T13:22:05;14.00;26.70
8422;DHT22;4248;48.196;10.924;2023-04-24T13:24:31;13.90;26.80
8422;DHT22;4248;48.196;10.924;2023-04-24T13:26:57;14.00;26.60
8422;DHT22;4248;48.196;10.924;2023-04-24T13:29:23;14.10;27.20
8422;DHT22;4248;48.196;10.924;2023-04-24T13:31:53;14.00;27.10
8422;DHT22;4248;48.196;10.924;2023-04-24T13:34:26;13.80;26.70
8422;DHT22;4248;48.196;10.924;2023-04-24T13:36:55;13.90;27.10
8422;DHT22;4248;48.196;10.924;2023-04-24T13:39:23;14.20;27.90
8422;DHT22;4248;48.196;10.924;2023-04-24T13:41:49;14.40;27.40
8422;DHT22;4248;48.196;10.924;2023-04-24T13:44:16;14.30;27.40
8422;DHT22;4248;48.196;10.924;2023-04-24T13:46:43;14.00;26.60
8422;DHT22;4248;48.196;10.924;2023-04-24T13:49:10;13.80;27.90
8422;DHT22;4248;48.196;10.924;2023-04-24T13:51:36;13.80;28.80
8422;DHT22;4248;48.196;10.924;2023-04-24T13:54:02;13.80;28.00
8422;DHT22;4248;48.196;10.924;2023-04-24T13:56:27;13.80;28.20
8422;DHT22;4248;48.196;10.924;2023-04-24T13:58:53;13.70;27.80
8422;DHT22;4248;48.196;10.924;2023-04-24T14:01:22;13.80;28.10
8422;DHT22;4248;48.196;10.924;2023-04-24T14:03:51;14.00;27.40
8422;DHT22;4248;48.196;10.924;2023-04-24T14:06:21;14.10;27.10
8422;DHT22;4248;48.196;10.924;2023-04-24T14:08:47;14.10;26.20
8422;DHT22;4248;48.196;10.924;2023-04-24T14:11:13;14.20;25.60
8422;DHT22;4248;48.196;10.924;2023-04-24T14:13:40;14.40;25.20
8422;DHT22;4248;48.196;10.924;2023-04-24T14:16:06;14.40;24.70
8422;DHT22;4248;48.196;10.924;2023-04-24T14:18:31;14.30;24.50
8422;DHT22;4248;48.196;10.924;2023-04-24T14:20:57;14.20;25.20
8422;DHT22;4248;48.196;10.924;2023-04-24T14:23:23;14.30;24.00
8422;DHT22;4248;48.196;10.924;2023-04-24T14:25:49;14.00;23.30
8422;DHT22;4248;48.196;10.924;2023-04-24T14:28:18;13.90;24.30
8422;DHT22;4248;48.196;10.924;2023-04-24T14:30:44;13.90;25.10
8422;DHT22;4248;48.196;10.924;2023-04-24T14:33:10;14.00;25.30
8422;DHT22;4248;48.196;10.924;2023-04-24T14:35:37;13.90;23.80
8422;DHT22;4248;48.196;10.924;2023-04-24T14:38:02;13.80;23.80
8422;DHT22;4248;48.196;10.924;2023-04-24T14:40:28;13.80;24.90
8422;DHT22;4248;48.196;10.924;2023-04-24T14:42:54;13.90;24.60
8422;DHT22;4248;48.196;10.924;2023-04-24T14:45:19;14.00;25.30
8422;DHT22;4248;48.196;10.924;2023-04-24T14:47:45;13.80;23.60
8422;DHT22;4248;48.196;10.924;2023-04-24T14:50:11;13.80;25.10
8422;DHT22;4248;48.196;10.924;2023-04-24T14:52:38;13.80;24.20
8422;DHT22;4248;48.196;10.924;2023-04-24T14:55:04;13.80;23.90
8422;DHT22;4248;48.196;10.924;2023-04-24T14:57:30;13.80;24.30
8422;DHT22;4248;48.196;10.924;2023-04-24T14:59:55;13.80;23.80
8422;DHT22;4248;48.196;10.924;2023-04-24T15:02:21;13.70;24.00
8422;DHT22;4248;48.196;10.924;2023-04-24T15:04:47;13.70;24.10
8422;DHT22;4248;48.196;10.924;2023-04-24T15:07:12;13.90;23.70
8422;DHT22;4248;48.196;10.924;2023-04-24T15:09:38;13.90;24.20
8422;DHT22;4248;48.196;10.924;2023-04-24T15:12:03;13.70;23.70
8422;DHT22;4248;48.196;10.924;2023-04-24T15:14:29;13.60;23.10
8422;DHT22;4248;48.196;10.924;2023-04-24T15:16:55;13.60;23.40
8422;DHT22;4248;48.196;10.924;2023-04-24T15:19:21;13.80;22.20
8422;DHT22;4248;48.196;10.924;2023-04-24T15:21:46;13.80;22.30
8422;DHT22;4248;48.196;10.924;2023-04-24T15:24:12;13.80;23.20
8422;DHT22;4248;48.196;10.924;2023-04-24T15:26:37;13.90;23.20
8422;DHT22;4248;48.196;10.924;2023-04-24T15:29:03;13.80;22.80
8422;DHT22;4248;48.196;10.924;2023-04-24T15:31:29;13.70;22.30
8422;DHT22;4248;48.196;10.924;2023-04-24T15:33:54;13.60;22.30
8422;DHT22;4248;48.196;10.924;2023-04-24T15:36:20;13.50;22.00
8422;DHT22;4248;48.196;10.924;2023-04-24T15:38:46;13.50;22.90
8422;DHT22;4248;48.196;10.924;2023-04-24T15:41:12;13.60;22.50
8422;DHT22;4248;48.196;10.924;2023-04-24T15:43:38;13.50;22.30
8422;DHT22;4248;48.196;10.924;2023-04-24T15:46:04;13.20;21.70
8422;DHT22;4248;48.196;10.924;2023-04-24T15:48:30;13.30;22.70
8422;DHT22;4248;48.196;10.924;2023-04-24T15:50:56;13.40;22.70